Impacts METAR Board
IDs:

KPIT - Pittsburgh Intl, PA, US

Updated at: 1200 UTC 21 Sep 2018
Potential Impact None Slight Moderate High
Time 21/00Z 21/01Z 21/02Z 21/03Z 21/04Z 21/05Z 21/06Z 21/07Z 21/08Z 21/09Z 21/10Z 21/11Z 21/12Z
Temp78 76 74 73 73 72 71 70 70 70 69 69 70
Dewpt68 69 69 68 67 67 67 67 67 67 67 67 68
Altim30.09 30.10 30.10 30.08 30.09 30.08 30.08 30.07 30.06 30.06 30.07 30.08 30.07
VIS10 10 10 10 10 10 10 10 10 10 10 10 10
CIG-- -- -- -- -- -- -- -- -- -- -- 250 --
CoverFEWFEWFEWCLRCLRCLRCLRCLRCLRCLRSCTBKNFEW
FltCatVFRVFRVFRVFRVFRVFRVFRVFRVFRVFRVFRVFRVFR
WX--------------------------
WDir150150150170180160170180170180170170180
WSpd4 4 5 5 6 5 5 5 5 5 5 5 5
WGst-- -- -- -- -- -- -- -- -- -- -- -- --
Raw hourly METARs
KPIT 202351Z 15004KT 10SM FEW250 26/20 A3009 RMK AO2 SLP191 T02560200 10289 20256 55000
KPIT 210051Z 15004KT 10SM FEW250 24/21 A3010 RMK AO2 SLP193 T02440206
KPIT 210151Z 15005KT 10SM FEW250 23/21 A3010 RMK AO2 SLP191 T02330206
KPIT 210251Z 17005KT 10SM CLR 23/20 A3008 RMK AO2 SLP185 T02280200 58003
KPIT 210351Z 18006KT 10SM CLR 23/19 A3009 RMK AO2 SLP186 T02280194
KPIT 210451Z 16005KT 10SM CLR 22/19 A3008 RMK AO2 SLP185 T02220194 402890144
KPIT 210551Z 17005KT 10SM CLR 22/19 A3008 RMK AO2 SLP183 T02170194 10256 20217 58001
KPIT 210651Z 18005KT 10SM CLR 21/19 A3007 RMK AO2 SLP180 T02110194
KPIT 210751Z 17005KT 10SM CLR 21/19 A3006 RMK AO2 SLP178 T02110194
KPIT 210851Z 18005KT 10SM CLR 21/19 A3006 RMK AO2 SLP178 T02110194 55004
KPIT 210951Z 17005KT 10SM SCT140 SCT250 21/19 A3007 RMK AO2 SLP182 T02060194
KPIT 211051Z 17005KT 10SM FEW055 SCT150 BKN250 21/19 A3008 RMK AO2 SLP182 T02060194
KPIT 211151Z 18005KT 10SM FEW065 FEW150 21/20 A3007 RMK AO2 SLP182 T02110200 10217 20206 50003



Page loaded:  12:19 UTC  |   05:19 AM Pacific  |   06:19 AM Mountain  |   07:19 AM Central  |   08:19 AM Eastern

 

ADVISORIES

FORECASTS

FORECASTS

OBSERVATIONS

USER TOOLS

ABOUT US